Time;durP1;ratioP1;P1;durP2;ratioP2;P2;SDS_P1;SDS_P2;PMS_P1;PMS_P2;Temp;Humidity;BMP_temperature;BMP_pressure;BME280_temperature;BME280_humidity;BME280_pressure;Samples;Min_cycle;Max_cycle;Signal;HPM_P1;HPM_P2
2024/04/04 00:00:41;;;;;;;12.68;9.15;;;5.90;99.90;;;;;;4821556;29;20069;-79
2024/04/04 00:03:06;;;;;;;13.88;9.00;;;5.90;99.90;;;;;;4788598;30;20130;-78
2024/04/04 00:05:32;;;;;;;13.05;9.00;;;5.90;99.90;;;;;;4806872;29;20118;-78
2024/04/04 00:07:58;;;;;;;13.00;9.38;;;5.80;99.90;;;;;;4806526;29;20038;-78
2024/04/04 00:10:24;;;;;;;14.07;8.93;;;5.90;99.90;;;;;;4806611;29;20043;-78
2024/04/04 00:12:50;;;;;;;14.90;9.45;;;5.80;99.90;;;;;;4821276;29;20100;-80
2024/04/04 00:15:15;;;;;;;14.65;9.50;;;5.80;99.90;;;;;;4791329;29;20100;-80
2024/04/04 00:17:43;;;;;;;13.43;9.48;;;5.80;99.90;;;;;;4824975;29;20110;-80
2024/04/04 00:20:14;;;;;;;16.75;9.70;;;5.80;99.90;;;;;;4791304;29;20499;-80
2024/04/04 00:22:43;;;;;;;11.80;8.48;;;5.70;99.90;;;;;;4788689;29;20391;-81
2024/04/04 00:25:09;;;;;;;14.65;9.82;;;5.70;99.90;;;;;;4806263;29;20083;-80
2024/04/04 00:27:35;;;;;;;14.15;9.90;;;5.70;1.00;;;;;;4806656;29;20042;-80
2024/04/04 00:30:01;;;;;;;18.20;12.23;;;5.70;1.00;;;;;;4823939;29;20042;-80
2024/04/04 00:32:27;;;;;;;16.58;10.02;;;5.70;1.00;;;;;;4788176;30;20043;-79
2024/04/04 00:34:53;;;;;;;15.13;9.25;;;5.80;1.00;;;;;;4785012;30;20047;-78
2024/04/04 00:37:18;;;;;;;15.82;9.60;;;5.70;1.00;;;;;;4766690;30;20500;-77
2024/04/04 00:39:44;;;;;;;13.93;9.73;;;5.70;1.00;;;;;;4787931;30;20035;-79
2024/04/04 00:42:09;;;;;;;14.38;8.80;;;5.60;1.00;;;;;;4788126;30;20415;-79
2024/04/04 00:44:35;;;;;;;13.75;9.48;;;5.70;1.00;;;;;;4787949;29;20593;-79
2024/04/04 00:47:00;;;;;;;13.77;9.27;;;5.70;1.00;;;;;;4791669;29;20496;-80
2024/04/04 00:49:26;;;;;;;13.85;8.85;;;5.70;1.00;;;;;;4766523;30;20040;-79
2024/04/04 00:51:52;;;;;;;13.50;9.30;;;5.60;1.00;;;;;;4787933;29;20043;-79
2024/04/04 00:54:19;;;;;;;14.35;8.90;;;5.60;1.00;;;;;;4788081;30;20158;-78
2024/04/04 00:56:46;;;;;;;13.32;9.27;;;5.60;1.00;;;;;;4787852;29;20143;-78
2024/04/04 00:59:12;;;;;;;12.98;9.07;;;5.60;1.00;;;;;;4788070;29;20059;-82
2024/04/04 01:01:41;;;;;;;12.38;9.32;;;5.60;1.00;;;;;;4783284;30;20058;-81
2024/04/04 01:04:06;;;;;;;13.75;9.65;;;5.60;1.00;;;;;;4792181;29;20040;-82
2024/04/04 01:06:32;;;;;;;12.25;8.98;;;5.60;1.00;;;;;;4819568;29;20042;-82
2024/04/04 01:08:58;;;;;;;13.75;8.77;;;5.60;1.00;;;;;;4824053;29;20547;-82
2024/04/04 01:11:24;;;;;;;13.93;9.52;;;5.60;1.00;;;;;;4824027;29;20042;-82
2024/04/04 01:13:50;;;;;;;13.02;9.27;;;5.70;1.00;;;;;;4823771;29;20129;-80
2024/04/04 01:16:15;;;;;;;14.13;10.18;;;5.70;1.00;;;;;;4872491;29;20043;-80
2024/04/04 01:18:41;;;;;;;12.48;9.23;;;5.70;1.00;;;;;;4897565;29;20081;-80
2024/04/04 01:21:08;;;;;;;14.02;10.13;;;5.70;1.00;;;;;;4878715;29;20447;-80
2024/04/04 01:23:33;;;;;;;13.38;10.20;;;5.70;1.00;;;;;;4878796;29;20044;-80
2024/04/04 01:25:59;;;;;;;14.98;9.95;;;5.70;1.00;;;;;;4879005;29;20037;-79
2024/04/04 01:28:24;;;;;;;13.30;10.32;;;5.70;1.00;;;;;;4892941;29;20393;-79
2024/04/04 01:30:50;;;;;;;13.65;9.82;;;5.70;1.00;;;;;;4897093;29;20056;-80
2024/04/04 01:33:15;;;;;;;12.60;9.98;;;5.70;1.00;;;;;;4864853;29;20068;-80
2024/04/04 01:35:41;;;;;;;12.23;9.82;;;5.70;1.00;;;;;;4846838;29;20045;-81
2024/04/04 01:38:06;;;;;;;13.13;9.52;;;5.80;1.00;;;;;;4833349;29;20045;-81
2024/04/04 01:40:32;;;;;;;13.07;9.82;;;5.70;11.10;;;;;;4823215;29;20054;-81
2024/04/04 01:42:57;;;;;;;13.30;10.02;;;5.70;17.80;;;;;;4841365;29;20038;-80
2024/04/04 01:45:23;;;;;;;14.18;10.52;;;5.80;19.70;;;;;;4828138;29;20039;-80
2024/04/04 01:47:49;;;;;;;14.13;10.57;;;5.80;18.80;;;;;;4809942;29;20039;-80
2024/04/04 01:50:14;;;;;;;12.23;10.00;;;5.80;21.70;;;;;;4818035;29;20395;-82
2024/04/04 01:52:40;;;;;;;13.55;10.40;;;5.90;26.00;;;;;;4814778;29;20066;-83
2024/04/04 01:55:05;;;;;;;15.95;11.07;;;5.90;19.70;;;;;;4823093;29;20041;-82
2024/04/04 01:57:31;;;;;;;11.93;9.65;;;5.90;33.00;;;;;;4859569;29;20443;-82
2024/04/04 01:59:56;;;;;;;13.32;10.10;;;5.90;34.80;;;;;;4872733;29;20048;-80
2024/04/04 02:02:22;;;;;;;13.30;10.07;;;6.00;50.70;;;;;;4833669;29;20038;-80
2024/04/04 02:04:47;;;;;;;12.65;10.43;;;6.00;64.90;;;;;;4836136;29;20113;-80
2024/04/04 02:07:13;;;;;;;12.90;10.38;;;6.00;69.20;;;;;;4864696;29;20099;-81
2024/04/04 02:09:39;;;;;;;13.45;9.80;;;6.00;70.80;;;;;;4891396;29;20069;-81
2024/04/04 02:12:05;;;;;;;12.82;9.63;;;6.00;92.70;;;;;;4864958;29;20041;-79
2024/04/04 02:14:31;;;;;;;11.90;9.60;;;6.10;94.90;;;;;;4872343;29;20047;-80
2024/04/04 02:16:57;;;;;;;13.73;9.85;;;6.00;96.90;;;;;;4872718;29;20089;-81
2024/04/04 02:19:22;;;;;;;14.13;10.32;;;6.10;99.90;;;;;;4877840;29;20045;-80
2024/04/04 02:21:48;;;;;;;14.30;10.32;;;6.10;99.90;;;;;;4882823;29;20045;-80
2024/04/04 02:24:13;;;;;;;14.93;11.07;;;6.10;99.90;;;;;;4882914;29;20037;-80
2024/04/04 02:26:39;;;;;;;14.95;10.05;;;6.10;99.90;;;;;;4869728;29;20133;-80
2024/04/04 02:29:05;;;;;;;12.35;9.57;;;6.10;99.90;;;;;;4859332;29;20037;-81
2024/04/04 02:31:30;;;;;;;11.98;9.68;;;6.10;99.90;;;;;;4859028;29;20525;-79
2024/04/04 02:33:56;;;;;;;13.85;10.07;;;6.10;99.90;;;;;;4845675;29;20477;-80
2024/04/04 02:36:24;;;;;;;13.07;10.55;;;6.10;99.90;;;;;;4821682;29;20045;-79
2024/04/04 02:38:49;;;;;;;14.38;11.68;;;6.10;99.90;;;;;;4804233;29;20038;-79
2024/04/04 02:41:15;;;;;;;14.35;11.20;;;6.00;99.90;;;;;;4786046;30;20047;-79
2024/04/04 02:43:40;;;;;;;13.05;10.30;;;6.00;99.90;;;;;;4786074;30;20058;-79
2024/04/04 02:46:06;;;;;;;13.23;10.20;;;6.00;99.90;;;;;;4742127;30;20071;-79
2024/04/04 02:48:32;;;;;;;14.07;10.30;;;6.00;99.90;;;;;;4724207;30;20049;-81
2024/04/04 02:50:58;;;;;;;14.70;10.30;;;6.00;99.90;;;;;;4755177;30;20064;-81
2024/04/04 02:53:24;;;;;;;13.43;10.70;;;6.00;99.90;;;;;;4786093;30;20044;-81
2024/04/04 02:55:57;;;;;;;15.30;10.70;;;6.00;99.90;;;;;;4799476;29;20070;-79
2024/04/04 02:58:25;;;;;;;13.30;9.93;;;6.00;99.90;;;;;;4768162;30;20051;-83
2024/04/04 03:00:52;;;;;;;12.95;10.32;;;6.10;99.90;;;;;;4768391;30;20052;-82
2024/04/04 03:03:17;;;;;;;12.82;10.63;;;6.10;99.90;;;;;;4781552;30;20047;-82
2024/04/04 03:05:43;;;;;;;12.68;10.15;;;6.00;99.90;;;;;;4753816;30;20048;-82
2024/04/04 03:08:10;;;;;;;14.30;10.27;;;6.00;99.90;;;;;;4768123;30;20110;-82
2024/04/04 03:10:36;;;;;;;13.95;11.00;;;5.90;99.90;;;;;;4768753;30;20048;-82
2024/04/04 03:13:03;;;;;;;14.73;10.90;;;5.90;1.00;;;;;;4779320;30;20054;-82
2024/04/04 03:15:29;;;;;;;15.05;11.30;;;6.00;1.00;;;;;;4786072;30;20570;-82
2024/04/04 03:17:55;;;;;;;12.65;9.52;;;6.00;1.00;;;;;;4815639;29;20379;-83
2024/04/04 03:20:21;;;;;;;14.10;10.43;;;6.00;1.00;;;;;;4806696;29;20042;-83
2024/04/04 03:22:47;;;;;;;14.88;10.80;;;6.00;1.00;;;;;;4804044;29;20042;-82
2024/04/04 03:25:13;;;;;;;13.73;10.35;;;6.00;1.00;;;;;;4819145;29;20034;-82
2024/04/04 03:27:38;;;;;;;12.13;10.13;;;6.00;1.00;;;;;;4840621;29;20034;-82
2024/04/04 03:30:05;;;;;;;16.90;9.95;;;6.00;1.00;;;;;;4868432;29;20490;-83
2024/04/04 03:32:31;;;;;;;12.27;9.57;;;6.00;1.00;;;;;;4858797;29;20037;-82
2024/04/04 03:34:58;;;;;;;16.35;11.30;;;6.00;1.00;;;;;;4844723;29;20065;-82
2024/04/04 03:37:24;;;;;;;12.55;10.40;;;6.00;1.00;;;;;;4826162;29;20065;-82
2024/04/04 03:39:49;;;;;;;14.30;10.65;;;6.00;1.00;;;;;;4821940;29;20577;-82
2024/04/04 03:42:15;;;;;;;14.48;10.63;;;6.00;1.00;;;;;;4821817;29;20046;-82
2024/04/04 03:44:41;;;;;;;14.68;10.90;;;6.00;1.00;;;;;;4821679;29;20495;-82
2024/04/04 03:47:06;;;;;;;13.30;10.63;;;6.00;1.00;;;;;;4823061;29;20045;-82
2024/04/04 03:49:32;;;;;;;15.43;10.98;;;6.00;1.00;;;;;;4841510;29;20034;-82
2024/04/04 03:51:57;;;;;;;12.82;9.32;;;6.00;1.00;;;;;;4820284;29;20096;-82
2024/04/04 03:54:23;;;;;;;13.23;10.15;;;6.00;1.00;;;;;;4829502;29;20106;-82
2024/04/04 03:56:48;;;;;;;13.23;9.68;;;6.10;1.00;;;;;;4824878;29;20034;-82
2024/04/04 03:59:14;;;;;;;12.60;9.38;;;6.10;1.00;;;;;;4843290;29;20591;-82
2024/04/04 04:01:39;;;;;;;15.60;10.25;;;6.10;1.00;;;;;;4816297;29;20515;-81
2024/04/04 04:04:05;;;;;;;12.45;9.98;;;6.10;1.00;;;;;;4811549;29;20034;-83
2024/04/04 04:06:32;;;;;;;14.98;9.93;;;6.10;1.00;;;;;;4843082;29;20038;-83
2024/04/04 04:08:57;;;;;;;13.57;9.57;;;6.10;1.00;;;;;;4843272;29;20124;-83
2024/04/04 04:11:23;;;;;;;13.45;8.88;;;6.10;1.00;;;;;;4856382;29;20132;-83
2024/04/04 04:13:49;;;;;;;12.55;8.98;;;6.10;1.00;;;;;;4880020;29;20033;-82
2024/04/04 04:16:14;;;;;;;12.52;9.77;;;6.10;1.00;;;;;;4912219;29;20039;-83
2024/04/04 04:18:40;;;;;;;13.25;9.88;;;6.10;1.00;;;;;;4890529;29;20041;-83
2024/04/04 04:21:19;;;;;;;13.80;9.80;;;6.10;1.00;;;;;;4880124;29;20096;-83
2024/04/04 04:23:48;;;;;;;11.88;9.82;;;6.10;1.00;;;;;;4868251;29;20094;-83
2024/04/04 04:26:14;;;;;;;12.75;10.38;;;6.10;1.00;;;;;;4861007;29;20070;-82
2024/04/04 04:28:40;;;;;;;13.68;10.40;;;6.20;1.00;;;;;;4861321;29;20068;-83
2024/04/04 04:31:28;;;;;;;13.18;10.65;;;6.20;1.00;;;;;;4863859;29;20065;-83
2024/04/04 04:33:55;;;;;;;13.65;11.40;;;6.20;1.00;;;;;;4843266;29;20037;-83
2024/04/04 04:36:24;;;;;;;14.95;11.00;;;6.20;18.50;;;;;;4806903;29;20039;-82
2024/04/04 04:38:52;;;;;;;14.52;12.35;;;6.20;37.80;;;;;;4860916;29;20057;-82
2024/04/04 04:41:18;;;;;;;16.95;12.68;;;6.30;53.50;;;;;;4842015;29;20053;-82
2024/04/04 04:43:46;;;;;;;15.95;12.20;;;6.30;74.80;;;;;;4861078;29;20370;-82
2024/04/04 04:46:20;;;;;;;14.73;11.20;;;6.40;85.80;;;;;;4861881;29;20136;-82
2024/04/04 04:48:47;;;;;;;15.88;12.07;;;6.40;93.80;;;;;;4877472;29;20132;-82
2024/04/04 04:51:13;;;;;;;13.93;11.38;;;6.40;99.90;;;;;;4869751;29;20041;-82
2024/04/04 04:53:39;;;;;;;14.27;11.27;;;6.50;99.80;;;;;;4897849;29;20037;-82
2024/04/04 04:56:05;;;;;;;15.65;11.45;;;6.50;99.90;;;;;;4897780;29;20481;-82
2024/04/04 04:58:31;;;;;;;16.05;12.23;;;6.50;99.90;;;;;;4877572;29;20401;-83
2024/04/04 05:00:57;;;;;;;15.25;10.93;;;6.60;99.90;;;;;;4860584;29;20041;-83
2024/04/04 05:03:24;;;;;;;16.38;12.48;;;6.60;99.90;;;;;;4879226;29;20037;-83
2024/04/04 05:05:52;;;;;;;16.08;12.18;;;6.60;99.90;;;;;;4860703;29;20042;-84
2024/04/04 05:08:19;;;;;;;18.05;13.00;;;6.70;99.90;;;;;;4842406;29;20041;-84
2024/04/04 05:10:46;;;;;;;15.30;11.85;;;6.70;99.90;;;;;;4819712;29;20043;-83
2024/04/04 05:13:11;;;;;;;15.65;12.55;;;6.80;99.90;;;;;;4806317;29;20035;-83
2024/04/04 05:15:48;;;;;;;16.13;12.57;;;6.80;99.90;;;;;;4806074;29;20050;-83
2024/04/04 05:18:14;;;;;;;15.23;12.30;;;6.80;99.90;;;;;;4839475;29;20042;-83
2024/04/04 05:20:41;;;;;;;15.50;12.80;;;6.90;99.90;;;;;;4860815;29;20612;-83
2024/04/04 05:23:06;;;;;;;16.70;12.68;;;6.80;99.90;;;;;;4860686;29;20033;-83
2024/04/04 05:25:33;;;;;;;15.50;12.43;;;6.90;99.90;;;;;;4829176;29;20045;-83
2024/04/04 05:27:58;;;;;;;16.92;12.95;;;7.00;99.90;;;;;;4842405;29;20049;-83
2024/04/04 05:30:24;;;;;;;17.23;13.30;;;7.00;99.90;;;;;;4828605;29;20062;-83
2024/04/04 05:32:49;;;;;;;17.27;13.07;;;7.10;99.90;;;;;;4826282;29;20518;-83
2024/04/04 05:35:15;;;;;;;17.25;13.40;;;7.10;99.90;;;;;;4875940;29;20615;-83
2024/04/04 05:37:42;;;;;;;17.30;13.65;;;7.20;99.90;;;;;;4826789;29;20038;-83
2024/04/04 05:40:08;;;;;;;19.70;13.70;;;7.20;99.90;;;;;;4823404;29;20074;-83
2024/04/04 05:42:34;;;;;;;15.80;12.88;;;7.30;99.90;;;;;;4805098;29;20552;-83
2024/04/04 05:45:00;;;;;;;17.33;13.07;;;7.40;99.90;;;;;;4804966;29;20508;-83
2024/04/04 05:47:25;;;;;;;21.50;13.98;;;7.40;99.90;;;;;;4805441;29;20071;-83
2024/04/04 05:49:51;;;;;;;17.88;12.98;;;7.50;99.90;;;;;;4804999;29;20042;-84
2024/04/04 05:52:17;;;;;;;17.65;14.05;;;7.40;96.50;;;;;;4836701;29;20042;-84
2024/04/04 05:54:47;;;;;;;18.98;13.63;;;7.60;99.90;;;;;;4846065;29;20038;-84
2024/04/04 05:57:15;;;;;;;18.50;13.00;;;7.50;99.90;;;;;;4841563;29;20042;-83
2024/04/04 05:59:40;;;;;;;18.48;13.07;;;7.50;99.90;;;;;;4856293;29;20048;-83
2024/04/04 06:02:06;;;;;;;18.98;14.52;;;7.50;99.90;;;;;;4845698;29;20046;-83
2024/04/04 06:04:32;;;;;;;19.02;14.65;;;7.60;99.90;;;;;;4855703;29;20037;-83
2024/04/04 06:06:57;;;;;;;18.58;14.35;;;7.70;99.90;;;;;;4870402;29;20045;-84
2024/04/04 06:09:23;;;;;;;18.67;13.25;;;7.90;1.00;;;;;;4878122;29;20402;-83
2024/04/04 06:11:49;;;;;;;19.10;13.77;;;8.00;1.00;;;;;;4855415;29;20086;-83
2024/04/04 06:14:14;;;;;;;19.33;14.02;;;8.10;1.00;;;;;;4873900;29;20523;-83
2024/04/04 06:16:41;;;;;;;19.63;14.00;;;8.10;1.00;;;;;;4859360;29;20109;-83
2024/04/04 06:19:06;;;;;;;21.58;14.43;;;8.40;1.00;;;;;;4841009;29;20041;-84
2024/04/04 06:21:32;;;;;;;21.88;14.05;;;8.40;1.00;;;;;;4840882;29;20403;-83
2024/04/04 06:23:57;;;;;;;19.85;14.73;;;8.50;1.00;;;;;;4859397;29;20065;-83
2024/04/04 06:26:25;;;;;;;23.85;17.25;;;8.50;1.00;;;;;;4851217;29;20037;-84
2024/04/04 06:28:52;;;;;;;24.02;15.73;;;8.50;1.00;;;;;;4840895;29;20506;-84
2024/04/04 06:31:18;;;;;;;22.73;15.45;;;8.60;1.00;;;;;;4843271;29;20057;-83
2024/04/04 06:33:44;;;;;;;24.70;16.42;;;8.80;1.00;;;;;;4840849;29;20046;-84
2024/04/04 06:36:09;;;;;;;24.15;16.55;;;8.90;1.00;;;;;;4809057;29;20133;-84
2024/04/04 06:38:35;;;;;;;23.75;16.80;;;9.10;99.90;;;;;;4790871;29;20046;-83
2024/04/04 06:41:01;;;;;;;26.35;17.20;;;9.50;99.90;;;;;;4795245;29;20085;-83
2024/04/04 06:43:26;;;;;;;21.58;16.38;;;9.40;99.90;;;;;;4822475;29;20082;-83
2024/04/04 06:45:52;;;;;;;21.77;15.75;;;9.60;99.90;;;;;;4804214;29;20046;-83
2024/04/04 06:48:17;;;;;;;26.25;15.85;;;9.70;99.90;;;;;;4790853;29;20043;-83
2024/04/04 06:50:43;;;;;;;19.98;15.27;;;9.60;99.90;;;;;;4808753;29;20138;-83
2024/04/04 06:53:09;;;;;;;23.50;17.08;;;9.80;99.90;;;;;;4817902;29;20046;-82
2024/04/04 06:55:35;;;;;;;20.90;15.60;;;10.20;99.90;;;;;;4822614;29;20525;-83
2024/04/04 06:58:02;;;;;;;20.92;16.15;;;10.00;99.90;;;;;;4836314;29;20094;-82
2024/04/04 07:00:27;;;;;;;27.27;17.40;;;10.20;99.90;;;;;;4858895;29;20141;-83
2024/04/04 07:02:53;;;;;;;21.88;15.75;;;10.30;99.90;;;;;;4858940;29;20132;-82
2024/04/04 07:05:18;;;;;;;21.05;16.38;;;10.30;99.90;;;;;;4840392;29;20030;-82
2024/04/04 07:07:44;;;;;;;22.92;16.40;;;10.50;99.90;;;;;;4795738;29;20052;-82
2024/04/04 07:10:10;;;;;;;24.55;15.73;;;10.70;90.60;;;;;;4790912;29;20051;-82
2024/04/04 07:12:35;;;;;;;21.67;15.55;;;10.50;99.90;;;;;;4790906;29;20058;-82
2024/04/04 07:15:02;;;;;;;22.10;15.20;;;10.60;99.90;;;;;;4799027;29;20137;-83
2024/04/04 07:17:31;;;;;;;19.63;13.93;;;10.40;97.50;;;;;;4777337;29;20039;-83
2024/04/04 07:19:57;;;;;;;20.20;15.23;;;10.50;99.60;;;;;;4790304;29;20040;-83
2024/04/04 07:22:24;;;;;;;19.65;14.55;;;10.90;99.90;;;;;;4823758;29;20050;-83
2024/04/04 07:24:50;;;;;;;18.70;14.35;;;11.10;1.00;;;;;;4844206;29;20049;-83
2024/04/04 07:27:15;;;;;;;19.63;14.88;;;10.90;1.00;;;;;;4843894;29;20037;-83
2024/04/04 07:29:44;;;;;;;19.65;14.25;;;11.50;1.00;;;;;;4843710;29;20102;-82
2024/04/04 07:32:10;;;;;;;20.08;14.50;;;11.40;1.00;;;;;;4811083;29;20093;-83
2024/04/04 07:34:36;;;;;;;17.98;14.18;;;11.50;1.00;;;;;;4789283;30;20213;-83
2024/04/04 07:37:02;;;;;;;20.33;14.10;;;11.50;1.00;;;;;;4793052;29;20039;-83
2024/04/04 07:39:30;;;;;;;17.95;13.45;;;11.50;1.00;;;;;;4771398;30;20465;-83
2024/04/04 07:41:56;;;;;;;18.70;12.57;;;11.70;1.00;;;;;;4789134;29;20138;-83
2024/04/04 07:44:22;;;;;;;17.65;12.63;;;11.50;1.00;;;;;;4789162;29;20126;-83
2024/04/04 07:46:51;;;;;;;14.35;11.98;;;11.70;99.90;;;;;;4760578;29;20048;-83
2024/04/04 07:49:17;;;;;;;16.73;11.60;;;11.80;99.90;;;;;;4753610;30;20055;-82
2024/04/04 07:51:43;;;;;;;14.27;10.75;;;12.30;99.90;;;;;;4807106;29;20487;-82
2024/04/04 07:54:10;;;;;;;14.27;10.50;;;12.80;17.00;;;;;;4854686;29;20039;-82
2024/04/04 07:56:35;;;;;;;13.18;9.60;;;12.70;1.00;;;;;;4858500;29;20037;-83
2024/04/04 07:59:01;;;;;;;13.50;9.68;;;13.50;99.90;;;;;;4843318;29;20204;-83
2024/04/04 08:01:27;;;;;;;12.90;9.13;;;13.30;99.90;;;;;;4843266;29;20170;-83
2024/04/04 08:03:53;;;;;;;12.68;8.43;;;14.90;1.00;;;;;;4828813;29;20089;-82
2024/04/04 08:06:19;;;;;;;12.40;8.77;;;17.00;99.90;;;;;;4800570;29;20193;-83
2024/04/04 08:08:44;;;;;;;11.68;7.47;;;17.10;99.90;;;;;;4825073;29;20530;-83
2024/04/04 08:11:12;;;;;;;11.63;7.80;;;16.60;99.90;;;;;;4810778;29;20042;-83
2024/04/04 08:13:40;;;;;;;10.73;7.38;;;18.00;2.90;;;;;;4839012;29;20041;-84
2024/04/04 08:16:07;;;;;;;13.88;8.20;;;17.60;1.00;;;;;;4828226;29;20038;-83
2024/04/04 08:18:33;;;;;;;13.32;8.25;;;17.70;1.00;;;;;;4842945;29;20107;-84
2024/04/04 08:20:58;;;;;;;8.40;5.40;;;17.50;1.00;;;;;;4843170;29;20522;-85
2024/04/04 08:23:25;;;;;;;9.50;5.50;;;16.60;1.00;;;;;;4861569;29;20044;-84
2024/04/04 08:25:55;;;;;;;10.18;5.88;;;16.40;1.00;;;;;;4854960;29;20132;-85
2024/04/04 08:28:21;;;;;;;8.32;5.15;;;16.60;1.00;;;;;;4808221;29;20051;-83
2024/04/04 08:31:03;;;;;;;7.60;4.63;;;16.50;1.00;;;;;;4784731;30;20063;-83
2024/04/04 08:33:30;;;;;;;6.18;4.20;;;16.30;1.00;;;;;;4823320;29;20042;-83
2024/04/04 08:35:55;;;;;;;9.38;6.50;;;17.00;99.90;;;;;;4806223;29;20491;-83
2024/04/04 08:38:21;;;;;;;10.75;6.75;;;17.20;99.90;;;;;;4840933;29;20045;-83
2024/04/04 08:40:49;;;;;;;6.78;3.90;;;18.00;99.90;;;;;;4772120;29;20405;-82
2024/04/04 08:43:18;;;;;;;10.13;4.10;;;18.70;99.90;;;;;;4788335;30;20038;-82
2024/04/04 08:45:48;;;;;;;7.75;3.70;;;18.10;99.90;;;;;;4806154;29;20066;-82
2024/04/04 08:48:18;;;;;;;6.95;4.05;;;17.90;99.90;;;;;;4824320;29;20034;-82
2024/04/04 08:50:47;;;;;;;7.40;3.40;;;17.40;99.90;;;;;;4765436;29;20112;-82
2024/04/04 08:53:19;;;;;;;7.00;3.47;;;17.60;99.90;;;;;;4773530;30;20101;-82
2024/04/04 08:55:46;;;;;;;4.28;2.75;;;17.50;99.90;;;;;;4770547;30;20040;-81
2024/04/04 08:58:13;;;;;;;4.82;3.05;;;18.20;99.90;;;;;;4787826;30;20066;-81
2024/04/04 09:00:39;;;;;;;5.80;2.92;;;19.40;99.90;;;;;;4788053;30;20062;-81
2024/04/04 09:03:06;;;;;;;5.57;2.88;;;19.50;5.10;;;;;;4795386;29;20035;-81
2024/04/04 09:05:32;;;;;;;5.85;3.17;;;19.60;1.00;;;;;;4807547;29;20137;-81
2024/04/04 09:07:57;;;;;;;6.30;2.90;;;19.20;1.00;;;;;;4840696;29;20046;-82
2024/04/04 09:10:23;;;;;;;4.60;2.95;;;18.50;1.00;;;;;;4857483;29;20577;-82
2024/04/04 09:12:59;;;;;;;5.97;2.97;;;18.30;1.00;;;;;;4809052;29;20042;-82
2024/04/04 09:15:25;;;;;;;5.88;2.80;;;17.80;1.00;;;;;;4823339;29;20039;-81
2024/04/04 09:17:50;;;;;;;5.05;2.75;;;17.70;1.00;;;;;;4807680;29;20115;-81
2024/04/04 09:20:18;;;;;;;6.38;2.30;;;16.80;1.00;;;;;;4840424;29;20475;-82
2024/04/04 09:22:45;;;;;;;5.75;2.22;;;16.70;1.00;;;;;;4841990;29;20410;-82
2024/04/04 09:25:11;;;;;;;5.40;2.10;;;16.90;1.00;;;;;;4842103;29;20034;-82
2024/04/04 09:27:38;;;;;;;4.78;2.55;;;16.90;1.00;;;;;;4826713;29;20034;-82
2024/04/04 09:30:10;;;;;;;4.32;2.30;;;17.00;1.00;;;;;;4822949;29;20433;-83
2024/04/04 09:32:36;;;;;;;6.93;2.60;;;17.40;1.00;;;;;;4826557;29;20129;-83
2024/04/04 09:35:02;;;;;;;5.03;2.45;;;18.10;1.00;;;;;;4805255;29;20042;-82
2024/04/04 09:37:29;;;;;;;11.35;6.50;;;18.40;1.00;;;;;;4774336;29;20039;-84
2024/04/04 09:39:55;;;;;;;6.70;2.15;;;18.50;1.00;;;;;;4805589;29;20049;-81
2024/04/04 09:42:23;;;;;;;5.97;2.60;;;18.90;1.00;;;;;;4805301;29;20125;-82
2024/04/04 09:44:49;;;;;;;4.18;2.30;;;19.00;1.00;;;;;;4779290;29;20493;-82
2024/04/04 09:47:17;;;;;;;4.07;2.60;;;19.40;1.00;;;;;;4769242;30;20032;-82
2024/04/04 09:49:43;;;;;;;3.08;1.90;;;21.20;99.90;;;;;;4802306;29;20039;-82
2024/04/04 09:52:09;;;;;;;3.63;2.30;;;22.70;99.90;;;;;;4828112;29;20039;-82
2024/04/04 09:54:36;;;;;;;8.07;2.58;;;23.90;99.90;;;;;;4823163;29;20071;-82
2024/04/04 09:57:04;;;;;;;12.05;8.32;;;23.40;99.90;;;;;;4823663;29;20043;-84
2024/04/04 09:59:30;;;;;;;9.02;6.53;;;21.50;99.90;;;;;;4841744;29;20114;-85
2024/04/04 10:02:05;;;;;;;4.90;2.70;;;21.00;99.90;;;;;;4844561;29;20371;-84
2024/04/04 10:04:37;;;;;;;4.13;2.20;;;20.80;99.90;;;;;;4841704;29;20068;-83
2024/04/04 10:07:04;;;;;;;3.22;1.92;;;19.70;99.90;;;;;;4858114;29;20126;-81
2024/04/04 10:09:38;;;;;;;3.80;1.80;;;19.20;99.90;;;;;;4877982;29;20578;-84
2024/04/04 10:12:14;;;;;;;2.38;1.40;;;21.00;99.90;;;;;;4841367;29;20490;-84
2024/04/04 10:14:55;;;;;;;2.45;1.27;;;22.60;99.90;;;;;;4841318;29;20490;-85
2024/04/04 10:17:21;;;;;;;2.55;1.50;;;21.40;99.90;;;;;;4861050;29;20102;-84
2024/04/04 10:19:48;;;;;;;3.33;1.67;;;19.70;99.90;;;;;;4856488;29;20509;-83
2024/04/04 10:22:16;;;;;;;3.42;1.65;;;19.20;99.90;;;;;;4841106;29;20130;-83
2024/04/04 10:24:42;;;;;;;3.22;1.70;;;18.90;99.90;;;;;;4841068;29;20122;-82
2024/04/04 10:27:12;;;;;;;3.72;1.67;;;19.70;99.90;;;;;;4878021;29;20081;-83
2024/04/04 10:29:38;;;;;;;7.70;1.67;;;21.10;99.90;;;;;;4875823;29;20093;-84
2024/04/04 10:32:08;;;;;;;4.22;1.52;;;21.90;99.90;;;;;;4859186;29;20140;-85
2024/04/04 10:34:34;;;;;;;2.78;1.70;;;21.90;99.90;;;;;;4859452;29;20505;-84
2024/04/04 10:36:59;;;;;;;3.78;1.65;;;20.80;99.90;;;;;;4840859;29;20072;-82
2024/04/04 10:39:25;;;;;;;4.80;1.58;;;20.80;99.90;;;;;;4822737;29;20034;-83
2024/04/04 10:41:57;;;;;;;2.95;1.33;;;20.50;99.90;;;;;;4822561;29;20547;-83
2024/04/04 10:44:23;;;;;;;2.97;1.30;;;19.90;99.90;;;;;;4815165;29;20031;-83
2024/04/04 10:46:50;;;;;;;3.10;1.35;;;19.50;99.90;;;;;;4822588;29;20118;-83
2024/04/04 10:49:23;;;;;;;3.20;1.40;;;19.20;99.90;;;;;;4838801;29;20030;-83
2024/04/04 10:51:51;;;;;;;2.50;1.05;;;19.10;99.90;;;;;;4786433;30;20096;-83
2024/04/04 10:54:19;;;;;;;3.50;1.27;;;18.30;99.90;;;;;;4786375;30;20059;-83
2024/04/04 10:56:45;;;;;;;3.05;1.20;;;18.10;99.90;;;;;;4785749;30;20130;-83
2024/04/04 10:59:15;;;;;;;2.88;1.45;;;17.40;99.90;;;;;;4751967;30;20040;-84
2024/04/04 11:01:41;;;;;;;2.90;1.23;;;17.70;99.90;;;;;;4768265;30;20044;-84
2024/04/04 11:04:10;;;;;;;3.92;1.35;;;17.30;99.90;;;;;;4768475;30;20035;-84
2024/04/04 11:06:36;;;;;;;2.78;1.30;;;17.00;99.90;;;;;;4774106;30;20047;-84
2024/04/04 11:09:10;;;;;;;3.42;1.27;;;17.00;99.90;;;;;;4838102;29;20137;-83
2024/04/04 11:11:39;;;;;;;11.65;8.02;;;16.90;99.90;;;;;;4804842;29;20065;-83
2024/04/04 11:14:05;;;;;;;6.15;2.75;;;17.10;99.90;;;;;;4840446;29;20073;-83
2024/04/04 11:16:31;;;;;;;5.32;2.40;;;17.20;99.90;;;;;;4840372;29;20069;-83
2024/04/04 11:18:58;;;;;;;2.92;1.50;;;16.80;99.90;;;;;;4806294;29;20126;-83
2024/04/04 11:21:23;;;;;;;3.45;1.45;;;17.00;99.90;;;;;;4804072;29;20047;-84
2024/04/04 11:23:49;;;;;;;4.25;1.63;;;17.10;99.90;;;;;;4857246;29;20101;-82
2024/04/04 11:26:15;;;;;;;3.58;1.75;;;17.50;99.90;;;;;;4875609;29;20504;-84
2024/04/04 11:28:42;;;;;;;5.80;2.17;;;18.00;99.90;;;;;;4877614;29;20505;-85
2024/04/04 11:31:08;;;;;;;3.47;1.50;;;18.20;99.90;;;;;;4887718;29;20079;-84
2024/04/04 11:33:33;;;;;;;2.97;1.73;;;18.00;99.90;;;;;;4890818;29;20033;-85
2024/04/04 11:36:00;;;;;;;3.17;1.30;;;17.60;99.90;;;;;;4874839;29;20041;-85
2024/04/04 11:38:26;;;;;;;2.88;1.65;;;17.40;99.90;;;;;;4877809;29;20040;-85
2024/04/04 11:40:52;;;;;;;3.65;1.55;;;17.80;99.90;;;;;;4843478;29;20062;-84
2024/04/04 11:43:18;;;;;;;4.03;1.50;;;17.90;99.90;;;;;;4812411;29;20047;-84
2024/04/04 11:45:43;;;;;;;3.22;1.83;;;18.60;99.90;;;;;;4804313;29;20043;-86
2024/04/04 11:48:09;;;;;;;2.63;1.08;;;18.40;99.90;;;;;;4840563;29;20036;-84
2024/04/04 11:50:35;;;;;;;4.00;1.30;;;18.70;99.90;;;;;;4826694;29;20141;-84
2024/04/04 11:53:01;;;;;;;3.20;1.40;;;19.20;99.90;;;;;;4840496;29;20054;-85
2024/04/04 11:55:28;;;;;;;4.47;1.83;;;19.30;99.90;;;;;;4840192;29;20056;-85
2024/04/04 11:57:54;;;;;;;3.08;1.60;;;19.40;99.90;;;;;;4858564;29;20048;-84
2024/04/04 12:00:20;;;;;;;2.45;1.30;;;19.30;99.90;;;;;;4858375;29;20411;-84
2024/04/04 12:02:47;;;;;;;3.30;1.20;;;19.40;99.90;;;;;;4858506;29;20078;-83
2024/04/04 12:05:14;;;;;;;2.75;1.02;;;19.50;99.90;;;;;;4858281;29;20045;-84
2024/04/04 12:07:41;;;;;;;1.95;1.00;;;19.80;99.90;;;;;;4873538;29;20044;-82
2024/04/04 12:10:10;;;;;;;1.77;0.90;;;19.10;99.90;;;;;;4880202;29;20041;-84
2024/04/04 12:12:36;;;;;;;3.17;1.50;;;19.00;99.90;;;;;;4832467;29;20099;-85
2024/04/04 12:15:07;;;;;;;3.80;1.45;;;19.00;99.90;;;;;;4824753;29;20034;-84
2024/04/04 12:17:33;;;;;;;3.00;1.20;;;18.80;99.90;;;;;;4825085;29;20046;-84
2024/04/04 12:19:58;;;;;;;4.13;1.20;;;18.40;99.90;;;;;;4827865;29;20042;-83
2024/04/04 12:22:24;;;;;;;3.60;1.40;;;18.20;99.90;;;;;;4794708;29;20515;-83
2024/04/04 12:24:49;;;;;;;4.28;1.73;;;18.30;99.90;;;;;;4824631;29;20045;-84
2024/04/04 12:27:15;;;;;;;2.92;1.77;;;18.20;99.90;;;;;;4809639;29;20520;-83
2024/04/04 12:29:40;;;;;;;2.20;1.42;;;18.00;99.90;;;;;;4824443;29;20491;-83
2024/04/04 12:32:06;;;;;;;2.45;1.50;;;17.90;99.90;;;;;;4857615;29;20049;-83
2024/04/04 12:34:32;;;;;;;2.15;1.25;;;17.80;99.90;;;;;;4861475;29;20061;-83
2024/04/04 12:36:57;;;;;;;3.95;1.33;;;17.70;99.90;;;;;;4861794;29;20072;-82
2024/04/04 12:39:24;;;;;;;3.60;1.60;;;17.70;99.90;;;;;;4879774;29;20029;-82
2024/04/04 12:41:50;;;;;;;1.95;1.10;;;17.70;99.90;;;;;;4875721;29;20493;-83